Time;durP1;ratioP1;P1;durP2;ratioP2;P2;SDS_P1;SDS_P2;PMS_P1;PMS_P2;Temp;Humidity;BMP_temperature;BMP_pressure;BME280_temperature;BME280_humidity;BME280_pressure;Samples;Min_cycle;Max_cycle;Signal;HPM_P1;HPM_P2
2022/12/28 00:01:14;;;;;;;3.88;2.30;;;5.00;77.60;;;;;;4976349;28;20030;-64
2022/12/28 00:03:40;;;;;;;2.65;2.33;;;5.00;77.60;;;;;;4969361;28;20038;-63
2022/12/28 00:06:07;;;;;;;3.80;2.15;;;5.00;77.70;;;;;;4960843;28;20035;-52
2022/12/28 00:08:32;;;;;;;4.63;2.50;;;5.00;77.70;;;;;;4971034;28;20031;-48
2022/12/28 00:11:00;;;;;;;4.18;2.78;;;5.00;77.70;;;;;;4971243;28;20041;-62
2022/12/28 00:13:26;;;;;;;3.33;2.58;;;5.00;77.70;;;;;;4972685;28;20096;-62
2022/12/28 00:15:51;;;;;;;3.28;2.45;;;5.00;77.60;;;;;;4971543;28;20042;-51
2022/12/28 00:18:17;;;;;;;3.88;2.70;;;5.00;77.60;;;;;;4969042;28;20035;-52
2022/12/28 00:20:43;;;;;;;2.92;2.63;;;5.10;77.50;;;;;;4972768;28;20027;-57
2022/12/28 00:23:08;;;;;;;3.42;2.40;;;5.10;77.50;;;;;;4973608;28;20046;-57
2022/12/28 00:25:35;;;;;;;4.88;2.45;;;5.10;77.50;;;;;;4967139;28;20355;-58
2022/12/28 00:28:01;;;;;;;3.83;2.50;;;5.10;77.30;;;;;;4972363;28;20095;-57
2022/12/28 00:30:26;;;;;;;5.22;2.70;;;5.10;77.10;;;;;;4968072;28;20038;-52
2022/12/28 00:32:52;;;;;;;3.92;2.47;;;5.20;77.20;;;;;;4970550;28;20449;-51
2022/12/28 00:35:18;;;;;;;5.57;2.55;;;5.20;77.00;;;;;;4968517;28;20034;-52
2022/12/28 00:37:43;;;;;;;2.50;2.30;;;5.20;76.80;;;;;;4969510;28;20121;-52
2022/12/28 00:40:09;;;;;;;3.10;2.38;;;5.20;76.70;;;;;;4992355;28;20482;-52
2022/12/28 00:42:35;;;;;;;4.97;2.45;;;5.20;76.70;;;;;;4972204;28;20035;-57
2022/12/28 00:45:01;;;;;;;3.47;2.30;;;5.20;76.40;;;;;;4963651;28;20150;-57
2022/12/28 00:47:26;;;;;;;2.55;2.20;;;5.20;76.30;;;;;;4972965;28;20034;-64
2022/12/28 00:49:52;;;;;;;7.75;3.22;;;5.20;76.20;;;;;;4984397;28;20457;-62
2022/12/28 00:52:18;;;;;;;2.38;2.17;;;5.20;76.00;;;;;;4976525;28;20047;-57
2022/12/28 00:54:43;;;;;;;2.67;2.40;;;5.20;76.00;;;;;;4973245;28;20034;-57
2022/12/28 00:57:09;;;;;;;2.33;2.10;;;5.30;76.00;;;;;;4968485;28;20031;-52
2022/12/28 00:59:34;;;;;;;2.72;2.20;;;5.30;75.70;;;;;;4972199;28;20490;-54
2022/12/28 01:02:00;;;;;;;3.85;2.10;;;5.30;75.70;;;;;;4969327;28;20043;-54
2022/12/28 01:04:26;;;;;;;3.88;2.60;;;5.30;75.60;;;;;;5011953;28;20031;-50
2022/12/28 01:06:51;;;;;;;3.17;2.40;;;5.30;75.60;;;;;;4989615;28;20059;-57
2022/12/28 01:09:17;;;;;;;3.08;2.50;;;5.30;75.60;;;;;;4965248;28;20125;-57
2022/12/28 01:11:43;;;;;;;3.55;2.50;;;5.30;75.30;;;;;;4969126;28;20086;-52
2022/12/28 01:14:08;;;;;;;3.80;2.90;;;5.30;75.40;;;;;;4975924;28;20038;-50
2022/12/28 01:16:35;;;;;;;2.50;2.30;;;5.30;75.20;;;;;;4969900;28;20027;-55
2022/12/28 01:19:04;;;;;;;4.95;2.78;;;5.30;75.30;;;;;;4970410;28;20047;-51
2022/12/28 01:21:32;;;;;;;3.72;2.63;;;5.30;75.30;;;;;;4979987;28;20123;-53
2022/12/28 01:24:00;;;;;;;3.13;2.45;;;5.30;75.40;;;;;;4971054;28;20088;-52
2022/12/28 01:26:27;;;;;;;3.90;2.60;;;5.30;75.40;;;;;;4975081;28;20140;-52
2022/12/28 01:28:53;;;;;;;3.50;2.72;;;5.30;75.60;;;;;;4974100;28;20042;-55
2022/12/28 01:31:20;;;;;;;3.78;2.42;;;5.30;75.60;;;;;;4976331;28;20137;-52
2022/12/28 01:33:47;;;;;;;3.83;2.50;;;5.30;75.60;;;;;;4972386;28;20109;-53
2022/12/28 01:36:14;;;;;;;3.55;2.70;;;5.30;75.70;;;;;;4986423;28;20035;-52
2022/12/28 01:38:40;;;;;;;2.92;2.50;;;5.30;75.80;;;;;;4965184;28;20796;-52
2022/12/28 01:41:09;;;;;;;3.22;2.70;;;5.30;75.70;;;;;;4971758;28;20038;-51
2022/12/28 01:43:45;;;;;;;3.40;2.78;;;5.30;75.70;;;;;;4968206;28;20129;-53
2022/12/28 01:46:42;;;;;;;4.60;2.85;;;5.30;75.70;;;;;;4970108;28;20054;-49
2022/12/28 01:49:31;;;;;;;3.75;2.92;;;5.20;75.40;;;;;;4969196;28;20026;-53
2022/12/28 01:52:21;;;;;;;3.80;2.63;;;5.30;75.70;;;;;;4968599;28;20562;-54
2022/12/28 01:54:56;;;;;;;4.55;2.65;;;5.30;75.80;;;;;;4961898;28;20034;-52
2022/12/28 01:57:26;;;;;;;3.72;2.60;;;5.30;75.90;;;;;;4970763;28;20500;-53
2022/12/28 01:59:59;;;;;;;3.60;2.90;;;5.30;76.10;;;;;;4971108;28;20350;-52
2022/12/28 02:02:26;;;;;;;5.55;3.00;;;5.30;76.00;;;;;;4971817;28;20039;-52
2022/12/28 02:04:52;;;;;;;4.93;2.80;;;5.30;76.00;;;;;;4966420;28;20049;-53
2022/12/28 02:07:31;;;;;;;4.70;3.08;;;5.20;76.00;;;;;;4971357;28;20032;-50
2022/12/28 02:09:57;;;;;;;4.30;3.10;;;5.20;75.90;;;;;;4976491;28;20046;-53
2022/12/28 02:12:24;;;;;;;3.58;2.60;;;5.20;76.00;;;;;;4961879;28;20096;-52
2022/12/28 02:14:50;;;;;;;4.32;3.05;;;5.20;76.10;;;;;;4977900;28;20035;-55
2022/12/28 02:17:16;;;;;;;4.88;2.83;;;5.20;76.10;;;;;;4972653;28;20528;-53
2022/12/28 02:19:46;;;;;;;6.85;3.72;;;5.10;76.00;;;;;;4968267;28;20035;-54
2022/12/28 02:22:30;;;;;;;5.45;3.03;;;5.20;76.00;;;;;;4974410;28;20027;-51
2022/12/28 02:25:30;;;;;;;4.53;3.13;;;5.10;76.00;;;;;;4961097;28;20041;-51
2022/12/28 02:28:13;;;;;;;6.30;3.25;;;5.10;75.90;;;;;;4967156;28;20031;-52
2022/12/28 02:30:57;;;;;;;4.40;3.15;;;5.10;75.90;;;;;;4969234;28;20090;-53
2022/12/28 02:33:31;;;;;;;4.30;2.80;;;5.10;75.90;;;;;;4969039;28;20027;-50
2022/12/28 02:36:14;;;;;;;4.55;3.10;;;5.10;76.00;;;;;;4958818;28;20382;-54
2022/12/28 02:38:56;;;;;;;4.22;2.97;;;5.10;76.00;;;;;;4969369;28;20042;-51
2022/12/28 02:41:24;;;;;;;5.35;2.78;;;5.10;76.00;;;;;;4965031;28;20043;-51
2022/12/28 02:43:52;;;;;;;5.22;3.45;;;5.10;76.00;;;;;;4965584;28;20030;-53
2022/12/28 02:52:46;;;;;;;4.28;3.35;;;5.10;76.00;;;;;;4965749;28;20088;-53
2022/12/28 02:58:32;;;;;;;7.32;3.15;;;5.00;75.90;;;;;;4967308;28;20046;-53
2022/12/28 03:01:10;;;;;;;4.47;3.17;;;5.00;76.00;;;;;;4965147;28;20046;-54
2022/12/28 03:03:35;;;;;;;4.45;3.47;;;5.00;76.10;;;;;;4964151;28;20031;-53
2022/12/28 03:09:08;;;;;;;3.88;3.35;;;5.00;76.30;;;;;;4964554;28;20092;-54
2022/12/28 03:11:47;;;;;;;3.33;3.00;;;5.00;76.60;;;;;;4972301;28;20109;-55
2022/12/28 03:14:25;;;;;;;6.32;3.67;;;5.00;76.70;;;;;;4968214;28;20138;-52
2022/12/28 03:31:02;;;;;;;5.68;3.80;;;5.00;77.30;;;;;;4981462;28;20084;-57
2022/12/28 03:33:28;;;;;;;5.53;4.05;;;4.90;77.40;;;;;;4971281;28;20049;-52
2022/12/28 03:36:10;;;;;;;5.65;4.07;;;5.00;77.50;;;;;;5003077;28;20029;-55
2022/12/28 03:39:06;;;;;;;4.75;3.92;;;4.90;77.70;;;;;;4984890;28;20096;-52
2022/12/28 03:41:37;;;;;;;7.70;3.97;;;4.90;77.80;;;;;;4971351;28;20089;-51
2022/12/28 03:44:24;;;;;;;;;;;4.90;77.90;;;;;;4971199;28;20037;-52
2022/12/28 03:47:09;;;;;;;4.95;4.15;;;4.90;78.30;;;;;;4974237;28;19916;-51
2022/12/28 03:49:35;;;;;;;5.68;4.07;;;4.90;78.20;;;;;;4974501;28;20100;-53
2022/12/28 03:52:01;;;;;;;6.10;4.60;;;4.90;78.40;;;;;;4973942;28;20038;-52
2022/12/28 03:54:27;;;;;;;6.00;4.10;;;4.90;78.50;;;;;;4981641;28;20117;-51
2022/12/28 03:56:52;;;;;;;5.80;4.30;;;4.90;78.50;;;;;;4982635;28;20521;-53
2022/12/28 03:59:18;;;;;;;7.28;3.90;;;4.90;78.50;;;;;;4975276;28;20210;-53
2022/12/28 04:01:44;;;;;;;6.32;4.97;;;5.00;78.60;;;;;;4981919;28;20035;-55
2022/12/28 04:04:10;;;;;;;7.13;4.65;;;4.90;78.70;;;;;;4998138;28;20080;-54
2022/12/28 04:06:36;;;;;;;7.03;4.47;;;4.90;78.80;;;;;;4967586;28;20047;-53
2022/12/28 04:09:03;;;;;;;7.63;5.07;;;4.90;78.90;;;;;;4972886;28;20031;-53
2022/12/28 04:11:28;;;;;;;5.57;4.40;;;4.90;79.00;;;;;;4980328;28;20052;-52
2022/12/28 04:13:54;;;;;;;5.68;4.22;;;4.90;79.20;;;;;;4974645;28;20050;-52
2022/12/28 04:16:20;;;;;;;6.78;4.45;;;4.90;79.20;;;;;;4967799;28;20034;-52
2022/12/28 04:18:46;;;;;;;7.47;4.50;;;4.90;79.30;;;;;;4974504;28;20118;-53
2022/12/28 04:21:13;;;;;;;5.40;3.90;;;4.90;79.30;;;;;;4969519;28;20093;-51
2022/12/28 04:23:39;;;;;;;6.80;4.30;;;4.90;79.30;;;;;;4967446;28;20629;-52
2022/12/28 04:26:10;;;;;;;7.28;4.38;;;5.00;79.50;;;;;;4974055;28;20046;-51
2022/12/28 04:28:37;;;;;;;7.35;4.95;;;5.00;79.40;;;;;;4971152;28;20540;-52
2022/12/28 04:31:04;;;;;;;8.10;4.60;;;5.00;79.40;;;;;;4968469;28;20031;-53
2022/12/28 04:33:34;;;;;;;6.78;4.40;;;5.00;79.30;;;;;;4969407;28;20031;-52
2022/12/28 04:36:08;;;;;;;4.72;4.10;;;5.10;79.30;;;;;;4973209;28;20035;-51
2022/12/28 04:38:35;;;;;;;7.63;4.10;;;5.10;79.30;;;;;;4972099;28;20542;-53
2022/12/28 04:41:02;;;;;;;6.75;4.85;;;5.10;79.40;;;;;;4968053;28;20055;-50
2022/12/28 04:43:32;;;;;;;6.53;5.00;;;5.00;79.30;;;;;;4974520;28;20030;-53
2022/12/28 04:46:04;;;;;;;5.05;4.18;;;5.10;79.40;;;;;;4986270;28;20069;-52
2022/12/28 04:48:30;;;;;;;5.72;4.45;;;5.10;79.40;;;;;;4969392;28;20100;-53
2022/12/28 04:50:56;;;;;;;6.18;4.57;;;5.10;79.50;;;;;;4969472;28;20126;-53
2022/12/28 04:53:22;;;;;;;5.05;4.32;;;5.10;79.50;;;;;;4978047;28;20035;-55
2022/12/28 04:55:48;;;;;;;5.70;4.38;;;5.10;79.50;;;;;;4970461;28;20038;-53
2022/12/28 04:58:14;;;;;;;5.65;4.53;;;5.10;79.50;;;;;;4977401;28;20054;-53
2022/12/28 05:00:40;;;;;;;7.43;4.78;;;5.10;79.60;;;;;;4971665;28;20088;-51
2022/12/28 05:03:05;;;;;;;4.78;4.20;;;5.20;79.60;;;;;;4972134;28;20031;-55
2022/12/28 05:05:31;;;;;;;6.75;5.18;;;5.20;79.50;;;;;;4975827;28;20025;-52
2022/12/28 05:08:00;;;;;;;5.80;4.57;;;5.20;79.50;;;;;;4969359;28;20339;-55
2022/12/28 05:10:27;;;;;;;6.00;4.25;;;5.20;79.50;;;;;;4976806;28;20038;-53
2022/12/28 05:12:56;;;;;;;6.35;4.80;;;5.20;79.50;;;;;;4967791;28;20057;-54
2022/12/28 05:15:22;;;;;;;5.68;4.57;;;5.20;79.50;;;;;;4971910;28;20735;-54
2022/12/28 05:17:47;;;;;;;6.55;5.25;;;5.10;79.50;;;;;;4966279;28;20026;-53
2022/12/28 05:20:14;;;;;;;5.72;4.75;;;5.20;79.60;;;;;;4973060;28;20039;-53
2022/12/28 05:22:40;;;;;;;5.70;4.75;;;5.20;79.50;;;;;;4972398;28;20109;-57
2022/12/28 05:25:06;;;;;;;7.07;5.28;;;5.20;79.60;;;;;;4964957;28;20023;-54
2022/12/28 05:27:32;;;;;;;6.80;4.65;;;5.10;79.50;;;;;;4968651;28;20053;-53
2022/12/28 05:29:57;;;;;;;8.30;5.07;;;5.20;79.60;;;;;;4965796;28;20464;-55
2022/12/28 05:32:23;;;;;;;8.05;4.88;;;5.20;79.60;;;;;;4964423;28;20118;-53
2022/12/28 05:34:48;;;;;;;7.00;5.45;;;5.10;79.60;;;;;;4966473;28;20117;-53
2022/12/28 05:37:14;;;;;;;6.90;5.03;;;5.20;79.60;;;;;;4964584;28;20076;-54
2022/12/28 05:39:40;;;;;;;6.13;4.80;;;5.20;79.80;;;;;;4964764;28;20043;-54
2022/12/28 05:42:05;;;;;;;7.13;5.72;;;5.20;79.70;;;;;;4968243;28;20030;-55
2022/12/28 05:44:31;;;;;;;6.43;4.93;;;5.20;79.70;;;;;;4972625;28;20030;-53
2022/12/28 05:46:57;;;;;;;6.90;5.07;;;5.30;79.80;;;;;;4963012;28;20034;-53
2022/12/28 05:49:22;;;;;;;6.75;4.88;;;5.20;79.70;;;;;;4963255;28;20035;-51
2022/12/28 05:51:52;;;;;;;9.52;7.10;;;5.20;79.70;;;;;;4965537;28;20511;-51
2022/12/28 05:54:18;;;;;;;6.95;5.72;;;5.20;79.70;;;;;;4969814;28;20034;-56
2022/12/28 05:56:44;;;;;;;8.65;5.40;;;5.20;79.80;;;;;;4973195;28;20030;-54
2022/12/28 05:59:12;;;;;;;7.90;5.35;;;5.30;79.70;;;;;;4970036;28;20039;-52
2022/12/28 06:01:39;;;;;;;9.10;5.40;;;5.30;79.80;;;;;;4972314;28;20029;-58
2022/12/28 06:04:07;;;;;;;7.32;5.25;;;5.30;79.80;;;;;;4971875;28;20039;-52
2022/12/28 06:06:34;;;;;;;7.05;5.47;;;5.30;79.60;;;;;;4968773;28;20059;-54
2022/12/28 06:09:00;;;;;;;6.60;5.22;;;5.30;79.70;;;;;;4965707;28;20656;-53
2022/12/28 06:11:28;;;;;;;6.97;5.30;;;5.30;79.60;;;;;;4970875;28;20037;-52
2022/12/28 06:13:54;;;;;;;7.20;5.20;;;5.30;79.60;;;;;;4983542;28;20031;-54
2022/12/28 06:16:24;;;;;;;6.82;5.10;;;5.30;79.60;;;;;;4965767;28;20045;-56
2022/12/28 06:18:53;;;;;;;8.07;5.63;;;5.30;79.60;;;;;;4962198;28;20053;-54
2022/12/28 06:21:22;;;;;;;9.23;5.68;;;5.30;79.60;;;;;;4962523;28;20031;-57
2022/12/28 06:23:49;;;;;;;7.25;5.32;;;5.30;79.70;;;;;;4966972;28;20022;-51
2022/12/28 06:26:17;;;;;;;8.40;5.60;;;5.30;79.70;;;;;;4967908;28;20042;-52
2022/12/28 06:28:44;;;;;;;8.93;6.03;;;5.30;79.70;;;;;;4959564;28;20027;-55
2022/12/28 06:31:15;;;;;;;9.73;6.13;;;5.30;79.80;;;;;;4957186;28;20412;-55
2022/12/28 06:33:41;;;;;;;7.97;6.20;;;5.40;79.80;;;;;;4953705;28;20085;-53
2022/12/28 06:36:15;;;;;;;7.65;5.25;;;5.30;79.70;;;;;;4964442;28;20478;-52
2022/12/28 06:38:41;;;;;;;7.25;5.25;;;5.40;79.80;;;;;;4962616;28;20122;-53
2022/12/28 06:41:08;;;;;;;8.45;6.07;;;5.40;79.70;;;;;;4967860;28;20153;-52
2022/12/28 06:43:36;;;;;;;7.35;5.65;;;5.40;79.50;;;;;;4958722;28;20793;-55
2022/12/28 06:46:02;;;;;;;6.22;5.55;;;5.40;79.50;;;;;;4963467;28;20384;-49
2022/12/28 06:48:29;;;;;;;6.60;5.20;;;5.40;79.50;;;;;;4960874;28;20043;-55
2022/12/28 06:51:08;;;;;;;7.32;5.55;;;5.40;79.50;;;;;;4964435;28;20035;-52
2022/12/28 06:53:36;;;;;;;6.10;5.30;;;5.50;79.30;;;;;;4958777;28;20373;-56
2022/12/28 06:56:05;;;;;;;8.63;5.25;;;5.50;79.20;;;;;;4958251;28;20031;-56
2022/12/28 06:58:31;;;;;;;7.43;5.40;;;5.50;79.20;;;;;;4956492;28;20129;-54
2022/12/28 07:01:08;;;;;;;7.82;5.15;;;5.50;79.00;;;;;;4957301;28;20072;-52
2022/12/28 07:03:34;;;;;;;6.45;5.00;;;5.50;78.90;;;;;;4955045;28;20444;-56
2022/12/28 07:06:01;;;;;;;7.82;5.47;;;5.60;78.80;;;;;;4960992;28;20177;-54
2022/12/28 07:08:28;;;;;;;7.85;5.82;;;5.60;78.80;;;;;;4956062;28;20031;-50
2022/12/28 07:10:53;;;;;;;8.70;5.85;;;5.60;78.70;;;;;;4953910;28;20080;-54
2022/12/28 07:13:19;;;;;;;6.68;5.28;;;5.60;78.60;;;;;;4960582;28;20584;-56
2022/12/28 07:15:45;;;;;;;6.40;5.18;;;5.70;78.60;;;;;;4960083;28;20041;-55
2022/12/28 07:18:11;;;;;;;6.63;5.55;;;5.70;78.60;;;;;;4960562;28;20038;-53
2022/12/28 07:20:36;;;;;;;7.53;5.88;;;5.70;78.50;;;;;;4964377;28;20122;-53
2022/12/28 07:23:02;;;;;;;9.05;5.93;;;5.80;78.60;;;;;;4959721;28;20110;-55
2022/12/28 07:25:28;;;;;;;6.30;5.25;;;5.80;78.60;;;;;;4956876;28;20039;-53
2022/12/28 07:27:53;;;;;;;8.30;5.15;;;5.80;78.60;;;;;;4960640;28;20038;-54
2022/12/28 07:30:19;;;;;;;5.70;4.85;;;5.80;78.50;;;;;;4953680;28;20028;-55
2022/12/28 07:32:45;;;;;;;8.15;5.40;;;5.80;78.50;;;;;;4969238;28;20147;-55
2022/12/28 07:35:10;;;;;;;6.13;5.03;;;5.80;78.60;;;;;;4962804;28;20038;-55
2022/12/28 07:37:36;;;;;;;7.90;5.40;;;5.80;78.60;;;;;;4954318;28;20031;-54
2022/12/28 07:40:02;;;;;;;6.80;5.35;;;5.80;78.80;;;;;;4959695;28;20043;-54
2022/12/28 07:42:28;;;;;;;10.45;5.70;;;5.80;78.60;;;;;;4955847;28;20126;-52
2022/12/28 07:44:54;;;;;;;8.27;6.13;;;5.80;78.50;;;;;;4954973;28;20894;-57
2022/12/28 07:47:19;;;;;;;9.10;6.00;;;5.80;78.40;;;;;;4960271;28;20042;-52
2022/12/28 07:49:45;;;;;;;8.15;5.72;;;5.80;78.30;;;;;;4955461;28;20388;-56
2022/12/28 07:52:11;;;;;;;6.75;5.22;;;5.80;78.40;;;;;;4948633;28;20030;-54
2022/12/28 07:54:36;;;;;;;7.10;5.97;;;5.80;78.40;;;;;;4958857;28;20035;-57
2022/12/28 07:57:02;;;;;;;8.20;5.70;;;5.90;78.40;;;;;;4960259;28;20556;-52
2022/12/28 07:59:28;;;;;;;7.07;5.57;;;5.90;78.40;;;;;;4955757;28;20148;-50
2022/12/28 08:01:53;;;;;;;6.72;5.75;;;5.90;78.30;;;;;;4965855;28;20035;-55
2022/12/28 08:04:19;;;;;;;7.50;5.68;;;5.90;78.10;;;;;;4955746;28;20026;-55
2022/12/28 08:06:45;;;;;;;8.63;5.97;;;6.00;78.00;;;;;;4943520;28;20037;-55
2022/12/28 08:09:13;;;;;;;6.97;5.78;;;6.00;78.00;;;;;;4943913;28;20046;-56
2022/12/28 08:11:44;;;;;;;6.63;5.47;;;6.00;77.80;;;;;;4947881;28;20122;-59
2022/12/28 08:14:10;;;;;;;5.87;5.27;;;6.10;77.80;;;;;;4945385;28;20685;-58
2022/12/28 08:16:41;;;;;;;7.47;5.47;;;6.10;77.60;;;;;;4940047;28;20034;-58
2022/12/28 08:19:07;;;;;;;8.30;5.95;;;6.10;77.40;;;;;;4944570;28;20086;-57
2022/12/28 08:21:39;;;;;;;6.90;5.65;;;6.10;77.50;;;;;;4938738;28;20111;-59
2022/12/28 08:24:07;;;;;;;7.93;5.55;;;6.20;77.50;;;;;;4948047;28;20035;-60
2022/12/28 08:26:37;;;;;;;6.80;5.07;;;6.20;77.50;;;;;;4935062;28;20046;-53
2022/12/28 08:29:10;;;;;;;7.72;5.05;;;6.20;77.40;;;;;;4952439;28;20039;-58
2022/12/28 08:31:38;;;;;;;7.15;5.22;;;6.20;77.10;;;;;;4945916;28;20047;-59
2022/12/28 08:34:07;;;;;;;6.32;5.20;;;6.30;77.20;;;;;;4945887;28;20041;-55
2022/12/28 08:36:33;;;;;;;7.97;5.93;;;6.30;77.10;;;;;;4946883;28;20031;-57
2022/12/28 08:38:59;;;;;;;7.28;6.03;;;6.30;77.00;;;;;;4948525;28;20117;-54
2022/12/28 08:41:27;;;;;;;8.07;6.45;;;6.30;76.80;;;;;;4945271;28;20046;-58
2022/12/28 08:43:53;;;;;;;8.98;5.85;;;6.30;77.00;;;;;;4942015;28;20489;-58
2022/12/28 08:46:21;;;;;;;6.95;5.38;;;6.30;76.70;;;;;;4938416;28;20048;-55
2022/12/28 08:48:48;;;;;;;7.57;5.82;;;6.30;77.20;;;;;;4948841;28;20039;-56
2022/12/28 08:51:17;;;;;;;7.70;5.40;;;6.40;76.40;;;;;;4943188;28;20034;-59
2022/12/28 08:53:44;;;;;;;7.93;5.47;;;6.40;76.50;;;;;;4942555;28;20039;-58
2022/12/28 08:56:18;;;;;;;6.35;5.30;;;6.40;76.30;;;;;;4946163;28;20066;-58
2022/12/28 08:58:45;;;;;;;6.95;5.32;;;6.40;76.20;;;;;;4939510;28;20042;-59
2022/12/28 09:01:17;;;;;;;8.35;5.65;;;6.40;76.00;;;;;;4937016;28;20050;-61
2022/12/28 09:03:45;;;;;;;7.68;5.30;;;6.50;75.70;;;;;;4946199;28;20035;-58
2022/12/28 09:06:17;;;;;;;6.63;5.40;;;6.50;75.70;;;;;;4950971;28;20027;-59
2022/12/28 09:08:43;;;;;;;6.43;4.97;;;6.50;75.70;;;;;;4937389;28;20038;-58
2022/12/28 09:11:11;;;;;;;8.60;5.68;;;6.50;75.40;;;;;;4945039;28;20081;-59
2022/12/28 09:13:38;;;;;;;5.60;4.82;;;6.50;75.10;;;;;;4941670;28;20059;-57
2022/12/28 09:16:06;;;;;;;7.00;4.72;;;6.50;75.20;;;;;;4946294;28;20037;-62
2022/12/28 09:18:33;;;;;;;6.40;5.10;;;6.50;75.20;;;;;;4935519;28;20918;-59
2022/12/28 09:21:09;;;;;;;7.28;5.13;;;6.50;75.20;;;;;;4941480;28;20037;-57
2022/12/28 09:23:35;;;;;;;7.10;5.90;;;6.60;75.10;;;;;;4932018;28;20027;-59
2022/12/28 09:26:10;;;;;;;6.60;5.18;;;6.60;75.10;;;;;;4935996;28;20916;-59
2022/12/28 09:28:36;;;;;;;6.50;5.13;;;6.60;74.70;;;;;;4945985;28;20047;-59
2022/12/28 09:31:03;;;;;;;5.47;4.80;;;6.70;74.20;;;;;;4957345;28;20030;-56
2022/12/28 09:36:15;;;;;;;6.15;4.60;;;6.60;73.50;;;;;;4947157;28;20045;-60
2022/12/28 09:38:41;;;;;;;6.18;5.20;;;6.60;73.50;;;;;;4949860;28;20066;-60
2022/12/28 09:41:31;;;;;;;11.25;5.90;;;6.60;73.40;;;;;;4948545;28;20546;-59
2022/12/28 09:44:25;;;;;;;9.25;6.35;;;6.50;72.70;;;;;;4934424;28;20039;-58
2022/12/28 09:47:02;;;;;;;7.18;5.13;;;6.50;72.90;;;;;;4943512;28;20038;-58
2022/12/28 09:50:01;;;;;;;5.75;4.90;;;6.40;73.00;;;;;;4940159;28;20039;-58
2022/12/28 09:52:29;;;;;;;9.10;6.43;;;6.40;72.90;;;;;;4952712;28;20151;-55
2022/12/28 09:55:11;;;;;;;9.82;8.13;;;6.40;73.00;;;;;;4946746;28;20034;-57
2022/12/28 09:57:40;;;;;;;8.38;5.85;;;6.40;73.10;;;;;;4939783;28;20128;-57
2022/12/28 10:00:15;;;;;;;7.60;5.47;;;6.40;73.10;;;;;;4935835;28;20039;-57
2022/12/28 10:02:42;;;;;;;6.50;4.90;;;6.50;73.00;;;;;;4940378;28;20031;-57
2022/12/28 10:05:11;;;;;;;7.30;4.88;;;6.40;73.00;;;;;;4945335;28;20035;-58
2022/12/28 10:07:37;;;;;;;6.70;4.43;;;6.50;72.80;;;;;;4951405;28;20092;-51
2022/12/28 10:10:03;;;;;;;6.15;4.18;;;6.60;72.50;;;;;;4937020;28;20036;-59
2022/12/28 10:12:30;;;;;;;5.75;4.25;;;6.60;72.20;;;;;;4943094;28;20441;-57
2022/12/28 10:14:56;;;;;;;5.45;4.30;;;6.60;71.70;;;;;;4947850;28;20050;-58
2022/12/28 10:17:29;;;;;;;6.90;4.43;;;6.70;71.80;;;;;;4949286;28;20023;-59
2022/12/28 10:19:57;;;;;;;6.13;4.30;;;6.70;71.90;;;;;;4949805;28;20361;-59
2022/12/28 10:22:25;;;;;;;6.75;4.40;;;6.80;71.60;;;;;;4951004;28;20031;-53
2022/12/28 10:24:52;;;;;;;5.38;4.38;;;6.80;72.10;;;;;;4938873;28;20038;-53
2022/12/28 10:27:23;;;;;;;7.43;4.10;;;6.90;70.90;;;;;;4933910;28;22220;-56
2022/12/28 10:29:50;;;;;;;;;;;6.90;70.60;;;;;;4941931;28;20042;-56
2022/12/28 10:32:17;;;;;;;7.65;4.00;;;6.80;68.90;;;;;;4939723;28;19933;-60
2022/12/28 10:34:56;;;;;;;4.85;3.75;;;6.80;70.30;;;;;;4927569;28;20650;-56
2022/12/28 10:37:23;;;;;;;5.57;4.13;;;6.80;69.90;;;;;;4947471;28;20070;-60
2022/12/28 10:40:01;;;;;;;6.43;4.63;;;6.80;70.20;;;;;;4938329;28;20054;-57
2022/12/28 10:42:39;;;;;;;4.60;3.70;;;6.80;69.70;;;;;;4928048;28;20439;-55
2022/12/28 10:45:14;;;;;;;4.32;3.75;;;6.80;69.20;;;;;;4948406;28;20031;-59
2022/12/28 10:47:43;;;;;;;7.32;3.83;;;6.70;68.90;;;;;;4940745;28;20067;-54
2022/12/28 10:50:40;;;;;;;3.72;3.40;;;6.70;68.60;;;;;;4947217;28;20038;-53
2022/12/28 10:53:39;;;;;;;4.78;3.78;;;6.70;68.90;;;;;;4949742;28;20078;-56
2022/12/28 10:56:05;;;;;;;5.63;3.90;;;6.60;69.10;;;;;;4945516;28;20050;-57
2022/12/28 10:58:31;;;;;;;5.78;3.90;;;6.60;69.20;;;;;;4947794;28;20031;-52
2022/12/28 11:01:06;;;;;;;5.82;4.28;;;6.50;69.40;;;;;;4952237;28;20039;-59
2022/12/28 11:03:36;;;;;;;6.13;4.63;;;6.50;69.50;;;;;;4953050;28;20035;-54
2022/12/28 11:06:12;;;;;;;5.20;4.30;;;6.50;69.40;;;;;;4952316;28;20073;-54
2022/12/28 11:08:40;;;;;;;5.07;4.15;;;6.50;69.50;;;;;;4939138;28;20383;-52
2022/12/28 11:11:06;;;;;;;6.25;4.60;;;6.40;69.30;;;;;;4937036;28;20122;-57
2022/12/28 11:13:32;;;;;;;5.72;3.90;;;6.40;69.20;;;;;;4946173;28;20038;-57
2022/12/28 11:15:58;;;;;;;5.15;4.00;;;6.40;69.30;;;;;;4942555;28;20034;-59
2022/12/28 11:18:24;;;;;;;4.95;4.03;;;6.40;69.40;;;;;;4958966;28;20045;-55
2022/12/28 11:20:52;;;;;;;5.55;3.90;;;6.40;69.00;;;;;;4948768;28;20061;-58
2022/12/28 11:23:24;;;;;;;5.65;3.60;;;6.40;68.70;;;;;;4957045;28;20034;-54
2022/12/28 11:25:50;;;;;;;;;;;6.40;68.60;;;;;;4946483;28;20843;-56
2022/12/28 11:28:20;;;;;;;5.03;3.75;;;6.30;67.40;;;;;;4951471;28;19962;-57
2022/12/28 11:30:47;;;;;;;5.53;3.70;;;6.30;68.30;;;;;;4945995;28;20039;-59
2022/12/28 11:33:26;;;;;;;9.32;5.72;;;6.30;67.90;;;;;;4952861;28;20089;-58
2022/12/28 11:35:54;;;;;;;6.95;4.88;;;6.30;67.60;;;;;;4947686;28;20051;-59
2022/12/28 11:38:44;;;;;;;6.68;5.05;;;6.20;67.40;;;;;;4962905;28;20141;-57
2022/12/28 11:41:36;;;;;;;6.45;4.40;;;6.20;67.30;;;;;;4955556;28;20156;-54
2022/12/28 11:44:03;;;;;;;;;;;6.20;67.70;;;;;;4962716;28;20046;-54
2022/12/28 11:46:29;;;;;;;4.45;3.47;;;6.20;67.50;;;;;;4949536;28;19921;-57
2022/12/28 11:49:00;;;;;;;5.40;3.95;;;6.20;68.50;;;;;;4950993;28;20034;-57
2022/12/28 11:51:34;;;;;;;5.28;3.97;;;6.30;68.60;;;;;;4959204;28;20042;-56
2022/12/28 11:54:02;;;;;;;6.80;4.28;;;6.30;68.70;;;;;;4940923;28;20042;-54
2022/12/28 11:56:43;;;;;;;5.88;4.03;;;6.30;68.60;;;;;;4947388;28;20508;-59
2022/12/28 11:59:30;;;;;;;5.17;3.80;;;6.40;68.60;;;;;;4960661;28;20054;-55
2022/12/28 12:02:21;;;;;;;5.53;3.67;;;6.40;68.60;;;;;;4943202;28;20031;-59
2022/12/28 12:04:46;;;;;;;5.72;3.83;;;6.50;68.60;;;;;;4937093;28;20042;-58
2022/12/28 12:07:16;;;;;;;5.57;4.20;;;6.50;68.30;;;;;;4936350;28;20035;-58
2022/12/28 12:09:44;;;;;;;5.55;4.07;;;6.60;68.40;;;;;;4934264;28;20044;-58
2022/12/28 12:12:13;;;;;;;4.55;3.72;;;6.60;68.30;;;;;;4934172;28;20817;-57
2022/12/28 12:14:44;;;;;;;6.07;4.00;;;6.70;68.30;;;;;;4948001;28;20289;-60
2022/12/28 12:17:33;;;;;;;8.40;4.45;;;6.60;68.20;;;;;;4946060;28;20031;-60
2022/12/28 12:20:04;;;;;;;6.00;3.97;;;6.60;68.00;;;;;;4953081;28;20043;-53
2022/12/28 12:22:41;;;;;;;6.15;4.35;;;6.60;68.20;;;;;;4953431;28;20038;-55
2022/12/28 12:25:13;;;;;;;4.38;3.83;;;6.60;68.20;;;;;;4953775;28;20063;-56
2022/12/28 12:27:43;;;;;;;4.43;3.53;;;6.60;68.30;;;;;;4952655;28;20046;-60
2022/12/28 12:30:18;;;;;;;5.20;3.65;;;6.60;68.50;;;;;;4946568;28;20035;-56
2022/12/28 12:32:55;;;;;;;5.63;3.60;;;6.60;68.00;;;;;;4953083;28;20777;-58
2022/12/28 12:35:24;;;;;;;6.68;4.07;;;6.60;68.90;;;;;;4948312;28;20039;-59
2022/12/28 12:38:01;;;;;;;4.53;3.30;;;6.70;68.00;;;;;;4961561;28;20137;-55
2022/12/28 12:40:42;;;;;;;4.35;3.40;;;6.70;67.60;;;;;;4953721;28;20054;-56
2022/12/28 12:43:17;;;;;;;;;;;6.70;67.80;;;;;;4946366;28;20023;-58
2022/12/28 12:45:54;;;;;;;4.45;3.33;;;6.70;66.80;;;;;;4937596;28;19918;-54
2022/12/28 12:48:37;;;;;;;4.80;3.55;;;6.70;67.60;;;;;;4938493;28;20031;-59
2022/12/28 12:51:41;;;;;;;5.43;3.40;;;6.70;67.60;;;;;;4939707;28;20042;-56
2022/12/28 12:54:48;;;;;;;4.10;3.08;;;6.70;67.20;;;;;;4935472;28;20037;-60
2022/12/28 12:57:23;;;;;;;3.70;2.97;;;6.70;67.10;;;;;;4953245;28;20202;-59
2022/12/28 13:00:00;;;;;;;4.28;3.20;;;6.70;67.10;;;;;;4945151;28;20043;-58
2022/12/28 13:02:45;;;;;;;3.20;2.90;;;6.70;66.90;;;;;;4946114;28;20043;-58
2022/12/28 13:05:17;;;;;;;3.55;2.95;;;6.60;67.00;;;;;;4943299;28;20104;-56
2022/12/28 13:07:43;;;;;;;7.35;4.50;;;6.60;67.00;;;;;;4935201;28;20081;-58
2022/12/28 13:10:15;;;;;;;7.00;4.68;;;6.70;67.10;;;;;;4945627;28;20038;-56
2022/12/28 13:12:41;;;;;;;10.82;5.68;;;6.70;67.00;;;;;;4952621;28;20453;-58
2022/12/28 13:15:15;;;;;;;7.10;3.83;;;6.70;66.70;;;;;;4949047;28;20089;-56
2022/12/28 13:18:01;;;;;;;5.50;3.85;;;6.70;66.60;;;;;;4945914;28;20035;-54
2022/12/28 13:20:27;;;;;;;4.05;3.15;;;6.70;66.60;;;;;;4953292;28;20039;-56
2022/12/28 13:22:54;;;;;;;4.40;3.40;;;6.70;66.90;;;;;;4948578;28;20076;-58
2022/12/28 13:25:27;;;;;;;6.43;3.47;;;6.70;66.90;;;;;;4944537;28;20077;-53
2022/12/28 13:27:54;;;;;;;4.05;3.30;;;6.70;66.90;;;;;;4941345;28;20164;-57
2022/12/28 13:30:22;;;;;;;4.70;3.50;;;6.70;67.00;;;;;;4952969;28;20036;-54
2022/12/28 13:33:18;;;;;;;5.80;3.60;;;6.60;67.10;;;;;;4942115;28;20038;-59
2022/12/28 13:35:44;;;;;;;4.28;3.10;;;6.60;67.20;;;;;;4942889;28;20045;-57
2022/12/28 13:38:15;;;;;;;7.40;3.58;;;6.60;67.00;;;;;;4951367;28;20031;-55
2022/12/28 13:40:50;;;;;;;5.80;3.58;;;6.50;66.90;;;;;;4944161;28;20147;-51
2022/12/28 13:43:43;;;;;;;4.78;3.40;;;6.50;67.20;;;;;;4947983;28;20918;-57